Welcome to the Virtual
Houston Air Route Traffic Control Center

Login

 
 

Forgot your password?

Controllers Online
Callsign Controller
Loading...
Updated --
Airport Information
ICAO Rules Wind Baro
Loading...
Updated --
Full Weather Information
Top Controllers - Aug '17
Controller Online
En-Route / Oceanic
1 Ayler Cruz (C1) 11:56
2 Reuben Prevost (I3) 08:16
3 Brandon Barrett (I1) 06:13
4 Cole Connelly (C1) 02:58
5 John Manley (C1) 02:09
Terminal RADAR
1 Evan Bradley (S2) 155127:14
2 Sebastian Knoop-Troullier (S3) 20:11
3 Jason Lu (S3) 12:46
4 Ayler Cruz (C1) 07:04
5 Reuben Prevost (I3) 05:00
C/G/L Control
1 Ryan Barnes (S1) 54:20
2 Chip Belcher (S1) 25:53
3 Alan Johnston (S2) 12:49
4 Tony Clemons (S1) 07:32
5 Brandon Wening (S1) 06:17
Full Controller Statistics

VATSIM
VATUSA

Weather


KAUSKAUS 170453Z 17011KT 10SM FEW018 28/24 A2996 RMK AO2 SLP131 T02830239
KBTRKBTR 170453Z 00000KT 10SM CLR 24/23 A3004 RMK AO2 SLP171 T02440233
KCRPKCRP 170508Z 17014G19KT 10SM BKN015 28/27 A2995 RMK AO2 T02830267
KGPTKGPT 170453Z AUTO 13004KT 10SM CLR 26/24 A3004 RMK AO2 SLP172 T02610244 TSNO PNO
KHOUKHOU 170453Z 17005KT 10SM FEW026 FEW250 29/26 A2998 RMK AO2 SLP154 T02940256
KIAHKIAH 170453Z 18008G16KT 10SM FEW021 SCT035 SCT250 29/25 A2998 RMK AO2 SLP149 T02940250
KLCHKLCH 170453Z AUTO 17004KT 10SM CLR 28/26 A3001 RMK AO2 SLP170 T02830256 TSNO $
KMOBKMOB 170456Z AUTO 00000KT 10SM CLR 26/23 A3007 RMK AO2 SLP179 T02560233 TSNO
KMSYKMSY 170453Z 15004KT 10SM FEW020 SCT250 27/24 A3006 RMK AO2 SLP181 T02670244 $
KSATKSAT 170523Z 16013KT 10SM BKN018 BKN250 28/23 A2998 RMK AO2 T02780233